Time;durP1;ratioP1;P1;durP2;ratioP2;P2;SDS_P1;SDS_P2;PMS_P1;PMS_P2;Temp;Humidity;BMP_temperature;BMP_pressure;BME280_temperature;BME280_humidity;BME280_pressure;Samples;Min_cycle;Max_cycle;Signal;HPM_P1;HPM_P2
2022/08/30 00:01:05;;;;;;;5.10;4.30;;;;;;;16.70;72.14;100548.86;109588;1267;22486;-77
2022/08/30 00:03:46;;;;;;;7.20;5.30;;;;;;;16.73;72.27;100547.36;106838;1271;22540;-82
2022/08/30 00:06:17;;;;;;;5.60;4.40;;;;;;;16.72;72.09;100549.34;106240;1268;24078;-80
2022/08/30 00:08:45;;;;;;;7.10;4.90;;;;;;;16.72;72.24;100549.71;106419;1268;24252;-79
2022/08/30 00:11:16;;;;;;;6.60;5.10;;;;;;;16.68;72.19;100546.45;106381;1271;25418;-78
2022/08/30 00:13:45;;;;;;;10.00;4.90;;;;;;;16.64;72.57;100549.07;106396;1269;25301;-77
2022/08/30 00:16:14;;;;;;;10.20;5.00;;;;;;;16.66;72.60;100549.91;106351;1271;25509;-77
2022/08/30 00:18:41;;;;;;;5.80;4.90;;;;;;;16.65;72.62;100552.75;106056;1277;25476;-76
2022/08/30 00:21:10;;;;;;;8.60;4.90;;;;;;;16.62;72.71;100555.19;105706;1277;22538;-77
2022/08/30 00:23:38;;;;;;;7.80;5.20;;;;;;;16.58;72.77;100550.49;105995;1274;23343;-76
2022/08/30 00:26:06;;;;;;;9.10;4.60;;;;;;;16.54;72.92;100550.27;105834;1280;23915;-78
2022/08/30 00:28:35;;;;;;;10.00;5.40;;;;;;;16.56;73.05;100550.38;106342;1276;22641;-78
2022/08/30 00:31:03;;;;;;;7.50;6.40;;;;;;;16.57;72.96;100550.70;106632;1274;23368;-75
2022/08/30 00:33:31;;;;;;;6.30;5.00;;;;;;;16.52;72.92;100549.44;106859;1274;26561;-76
2022/08/30 00:35:58;;;;;;;7.00;5.30;;;;;;;16.53;73.05;100547.63;107237;1273;22847;-77
2022/08/30 00:38:25;;;;;;;6.50;5.10;;;;;;;16.54;73.19;100548.14;108250;1268;24258;-77
2022/08/30 00:40:52;;;;;;;6.80;5.10;;;;;;;16.54;73.26;100546.36;108028;1268;22536;-77
2022/08/30 00:43:27;;;;;;;6.90;5.40;;;;;;;16.54;73.43;100546.88;107299;1274;23933;-76
2022/08/30 00:45:54;;;;;;;6.30;5.30;;;;;;;16.55;73.46;100543.81;106861;1274;22522;-78
2022/08/30 00:48:21;;;;;;;7.60;5.50;;;;;;;16.54;73.48;100549.02;106216;1274;22729;-79
2022/08/30 00:50:54;;;;;;;6.10;4.90;;;;;;;16.55;73.60;100548.46;105827;1274;24224;-75
2022/08/30 00:53:26;;;;;;;6.20;5.40;;;;;;;16.51;73.74;100546.98;105769;1274;22842;-76
2022/08/30 00:55:54;;;;;;;5.90;5.20;;;;;;;16.46;73.91;100549.09;105753;1274;22538;-79
2022/08/30 00:58:26;;;;;;;11.10;5.60;;;;;;;16.42;73.62;100548.30;105359;1282;22858;-79
2022/08/30 01:00:57;;;;;;;5.30;4.80;;;;;;;16.42;74.02;100549.06;105531;1277;23250;-77
2022/08/30 01:03:24;;;;;;;7.80;5.30;;;;;;;16.41;74.04;100543.04;105860;1277;22869;-77
2022/08/30 01:05:52;;;;;;;7.70;5.40;;;;;;;16.41;73.97;100546.58;105730;1276;22531;-77
2022/08/30 01:08:22;;;;;;;5.50;5.00;;;;;;;16.39;73.90;100541.84;105873;1276;22741;-77
2022/08/30 01:10:51;;;;;;;8.60;5.30;;;;;;;16.38;74.18;100547.02;105802;1278;22556;-77
2022/08/30 01:13:21;;;;;;;7.50;5.40;;;;;;;16.38;74.21;100549.16;105970;1276;22550;-77
2022/08/30 01:15:49;;;;;;;5.20;4.40;;;;;;;16.35;74.46;100545.87;105898;1272;22535;-75
2022/08/30 01:18:17;;;;;;;5.80;5.10;;;;;;;16.36;74.62;100550.12;106111;1274;22551;-77
2022/08/30 01:21:14;;;;;;;6.10;4.70;;;;;;;16.34;74.63;100550.55;105852;1277;22841;-77
2022/08/30 01:23:43;;;;;;;7.40;5.70;;;;;;;16.32;74.82;100547.39;105610;1277;24428;-82
2022/08/30 01:26:12;;;;;;;5.90;4.80;;;;;;;16.37;74.86;100548.50;105668;1277;22631;-77
2022/08/30 01:28:47;;;;;;;5.90;4.70;;;;;;;16.37;74.59;100550.80;105706;1277;23597;-81
2022/08/30 01:31:14;;;;;;;7.70;5.10;;;;;;;16.38;74.84;100547.76;105888;1277;22542;-79
2022/08/30 01:33:42;;;;;;;6.20;5.10;;;;;;;16.40;74.92;100545.73;105554;1280;22596;-84
2022/08/30 01:36:12;;;;;;;7.20;5.80;;;;;;;16.40;74.86;100549.63;105605;1280;25421;-77
2022/08/30 01:38:46;;;;;;;8.40;5.00;;;;;;;16.41;74.73;100550.66;105674;1277;23090;-79
2022/08/30 01:41:18;;;;;;;7.80;5.50;;;;;;;16.40;74.69;100548.76;105727;1277;22535;-77
2022/08/30 01:43:46;;;;;;;6.30;5.00;;;;;;;16.37;74.75;100550.78;105989;1277;22833;-76
2022/08/30 01:46:15;;;;;;;6.30;5.40;;;;;;;16.38;75.06;100548.98;105981;1277;24228;-74
2022/08/30 01:48:43;;;;;;;6.90;6.00;;;;;;;16.40;74.94;100552.84;105998;1277;22624;-83
2022/08/30 01:51:20;;;;;;;7.50;4.60;;;;;;;16.32;74.76;100550.77;105767;1272;25187;-81
2022/08/30 01:53:47;;;;;;;5.80;4.60;;;;;;;16.27;74.96;100553.21;106225;1271;24279;-80
2022/08/30 01:56:14;;;;;;;8.60;5.00;;;;;;;16.22;74.99;100550.90;106094;1271;24322;-81
2022/08/30 01:58:42;;;;;;;7.00;5.50;;;;;;;16.21;75.32;100554.28;106380;1271;22549;-85
2022/08/30 02:01:12;;;;;;;6.80;5.80;;;;;;;16.17;75.37;100556.19;106173;1274;22567;-79
2022/08/30 02:03:42;;;;;;;7.80;5.20;;;;;;;16.17;75.54;100551.02;106089;1274;22532;-76
2022/08/30 02:06:13;;;;;;;6.60;5.00;;;;;;;16.20;75.53;100549.85;105992;1277;24231;-77
2022/08/30 02:08:41;;;;;;;5.60;5.00;;;;;;;16.17;75.43;100546.59;105767;1274;22525;-79
2022/08/30 02:11:09;;;;;;;8.20;5.30;;;;;;;16.21;75.48;100546.29;106004;1277;22607;-77
2022/08/30 02:13:37;;;;;;;7.80;5.00;;;;;;;16.19;75.54;100544.92;106009;1274;22696;-78
2022/08/30 02:16:09;;;;;;;8.50;5.50;;;;;;;16.17;75.72;100547.64;106010;1274;22539;-79
2022/08/30 02:18:40;;;;;;;6.80;5.70;;;;;;;16.17;75.78;100553.52;105922;1274;22570;-78
2022/08/30 02:21:08;;;;;;;6.00;5.30;;;;;;;16.12;75.80;100550.11;105805;1272;22526;-78
2022/08/30 02:23:36;;;;;;;5.90;5.30;;;;;;;16.13;76.07;100551.70;106307;1271;25400;-77
2022/08/30 02:26:04;;;;;;;7.70;5.80;;;;;;;16.10;76.07;100551.08;106401;1271;22541;-78
2022/08/30 02:28:30;;;;;;;6.50;5.40;;;;;;;16.06;76.14;100552.61;106331;1271;22550;-79
2022/08/30 02:30:58;;;;;;;9.40;6.00;;;;;;;16.02;76.44;100551.66;106406;1271;24781;-77
2022/08/30 02:33:25;;;;;;;5.60;5.10;;;;;;;16.02;76.63;100551.30;106365;1271;26681;-77
2022/08/30 02:35:52;;;;;;;7.20;5.40;;;;;;;16.02;76.61;100552.17;106371;1271;22530;-77
2022/08/30 02:38:19;;;;;;;5.90;4.90;;;;;;;15.99;76.54;100555.82;106320;1271;22698;-76
2022/08/30 02:40:46;;;;;;;6.30;5.60;;;;;;;15.96;76.64;100559.06;106361;1271;24313;-84
2022/08/30 02:43:14;;;;;;;7.40;5.60;;;;;;;15.95;76.72;100565.48;106174;1271;24342;-77
2022/08/30 02:45:41;;;;;;;6.10;5.50;;;;;;;15.96;76.94;100564.92;106352;1271;25239;-77
2022/08/30 02:48:08;;;;;;;7.20;5.40;;;;;;;16.00;76.88;100561.98;106253;1272;22585;-76
2022/08/30 02:50:47;;;;;;;7.30;5.20;;;;;;;16.06;77.04;100563.60;106299;1271;24466;-76
2022/08/30 02:53:15;;;;;;;8.40;6.30;;;;;;;16.06;76.68;100566.61;106276;1271;22522;-76
2022/08/30 02:55:43;;;;;;;6.90;6.10;;;;;;;16.03;76.76;100567.95;106361;1271;22705;-77
2022/08/30 02:58:11;;;;;;;6.90;5.90;;;;;;;15.96;76.67;100567.77;106258;1272;22541;-78
2022/08/30 03:00:40;;;;;;;6.40;5.70;;;;;;;15.90;76.70;100566.16;106353;1268;22633;-76
2022/08/30 03:03:07;;;;;;;9.40;6.40;;;;;;;15.87;77.05;100567.51;106546;1268;24214;-76
2022/08/30 03:05:35;;;;;;;8.10;6.90;;;;;;;15.85;77.14;100567.74;106598;1271;23912;-77
2022/08/30 03:08:06;;;;;;;5.90;5.20;;;;;;;15.82;77.34;100569.77;107445;1268;25354;-79
2022/08/30 03:10:33;;;;;;;7.10;5.50;;;;;;;15.83;77.32;100571.16;109251;1268;22640;-80
2022/08/30 03:13:00;;;;;;;11.50;6.40;;;;;;;15.88;77.44;100572.27;108281;1268;22530;-80
2022/08/30 03:15:27;;;;;;;6.40;5.70;;;;;;;15.90;77.35;100574.50;107092;1268;22538;-77
2022/08/30 03:17:55;;;;;;;7.20;5.70;;;;;;;15.89;77.20;100573.82;108497;1268;22560;-77
2022/08/30 03:20:23;;;;;;;6.30;5.70;;;;;;;15.88;77.43;100574.04;108572;1271;24307;-77
2022/08/30 03:22:50;;;;;;;6.50;5.90;;;;;;;15.87;77.58;100576.92;106393;1271;22543;-78
2022/08/30 03:25:19;;;;;;;7.00;5.80;;;;;;;15.88;77.48;100580.80;106377;1271;24253;-82
2022/08/30 03:27:49;;;;;;;7.10;5.70;;;;;;;15.88;77.56;100582.20;106419;1269;22824;-79
2022/08/30 03:30:18;;;;;;;7.00;5.80;;;;;;;15.91;77.66;100582.30;106363;1271;22533;-80
2022/08/30 03:32:45;;;;;;;8.40;6.00;;;;;;;15.94;77.61;100583.81;106342;1271;24376;-80
2022/08/30 03:35:12;;;;;;;6.80;6.10;;;;;;;15.94;77.54;100581.32;106435;1268;25229;-78
2022/08/30 03:37:40;;;;;;;6.30;5.70;;;;;;;15.93;77.36;100581.17;106587;1267;22618;-77
2022/08/30 03:40:09;;;;;;;7.50;6.90;;;;;;;15.90;77.61;100581.63;106832;1271;22521;-75
2022/08/30 03:42:37;;;;;;;6.50;5.90;;;;;;;15.91;77.66;100582.13;107216;1271;23835;-79
2022/08/30 03:45:06;;;;;;;8.60;6.20;;;;;;;15.88;77.60;100579.38;106340;1271;24521;-79
2022/08/30 03:47:33;;;;;;;5.80;5.20;;;;;;;15.85;77.72;100581.93;106418;1271;22776;-75
2022/08/30 03:50:01;;;;;;;5.40;4.80;;;;;;;15.86;77.80;100580.50;106363;1269;25232;-72
2022/08/30 03:52:28;;;;;;;6.60;5.70;;;;;;;15.86;77.94;100579.23;106607;1272;22579;-74
2022/08/30 03:54:55;;;;;;;7.30;6.60;;;;;;;15.86;77.86;100583.67;106569;1271;25413;-78
2022/08/30 03:57:22;;;;;;;7.00;6.30;;;;;;;15.85;78.19;100579.80;106090;1277;23936;-75
2022/08/30 03:59:50;;;;;;;7.90;7.00;;;;;;;15.84;78.06;100580.53;106251;1277;24509;-77
2022/08/30 04:02:17;;;;;;;8.40;5.50;;;;;;;15.85;77.99;100585.66;106814;1275;22568;-73
2022/08/30 04:04:45;;;;;;;7.40;6.40;;;;;;;15.88;78.18;100587.73;106912;1274;22553;-74
2022/08/30 04:07:12;;;;;;;7.00;6.20;;;;;;;15.90;77.92;100587.66;106350;1274;25242;-82
2022/08/30 04:09:38;;;;;;;6.90;6.30;;;;;;;15.89;77.84;100589.64;106067;1274;22546;-78
2022/08/30 04:12:06;;;;;;;7.30;5.80;;;;;;;15.88;77.88;100588.06;106169;1275;22474;-78
2022/08/30 04:14:33;;;;;;;6.30;5.70;;;;;;;15.84;77.97;100585.85;106104;1277;22766;-76
2022/08/30 04:17:00;;;;;;;6.30;5.20;;;;;;;15.87;78.02;100587.40;106579;1274;22773;-81
2022/08/30 04:19:27;;;;;;;6.40;5.30;;;;;;;15.87;78.09;100584.73;106100;1275;22694;-82
2022/08/30 04:21:55;;;;;;;8.20;5.90;;;;;;;15.85;78.09;100586.02;105951;1274;23294;-82
2022/08/30 04:24:22;;;;;;;6.00;5.40;;;;;;;15.87;78.23;100591.32;105691;1280;24041;-77
2022/08/30 04:26:49;;;;;;;6.30;5.70;;;;;;;15.89;78.06;100594.06;105488;1280;25352;-77
2022/08/30 04:29:16;;;;;;;6.20;5.60;;;;;;;15.91;78.10;100596.67;105550;1281;22558;-79
2022/08/30 04:31:44;;;;;;;5.90;4.90;;;;;;;15.95;78.15;100598.52;105525;1280;22551;-81
2022/08/30 04:34:12;;;;;;;5.90;5.30;;;;;;;15.99;78.13;100603.77;106085;1275;25355;-77
2022/08/30 04:36:39;;;;;;;6.00;5.40;;;;;;;16.01;78.21;100600.15;106134;1274;22547;-75
2022/08/30 04:39:06;;;;;;;10.70;4.90;;;;;;;16.03;78.22;100601.36;106059;1275;24234;-80
2022/08/30 04:41:35;;;;;;;9.50;5.50;;;;;;;15.97;78.26;100604.70;105879;1275;22645;-78
2022/08/30 04:44:02;;;;;;;10.20;6.30;;;;;;;15.97;78.39;100610.03;106417;1271;25352;-78
2022/08/30 04:46:29;;;;;;;8.50;5.60;;;;;;;16.01;78.43;100616.52;106412;1271;22557;-79
2022/08/30 04:48:56;;;;;;;8.90;5.90;;;;;;;16.05;78.56;100618.01;106056;1277;22550;-81
2022/08/30 04:51:23;;;;;;;7.40;4.90;;;;;;;16.09;78.16;100624.27;105951;1275;26050;-78
2022/08/30 04:53:50;;;;;;;6.90;4.30;;;;;;;16.08;77.94;100626.60;106092;1274;23958;-81
2022/08/30 04:56:21;;;;;;;8.20;4.60;;;;;;;16.03;78.17;100626.41;106267;1277;22531;-82
2022/08/30 04:58:51;;;;;;;6.70;5.20;;;;;;;16.01;78.16;100628.25;106092;1274;24363;-79
2022/08/30 05:01:26;;;;;;;8.30;5.10;;;;;;;15.98;78.21;100624.92;106080;1275;22675;-79
2022/08/30 05:03:56;;;;;;;8.00;4.50;;;;;;;15.91;78.34;100626.86;106105;1274;24048;-81
2022/08/30 05:06:26;;;;;;;8.20;5.40;;;;;;;15.94;78.60;100625.02;106237;1274;22525;-81
2022/08/30 05:08:54;;;;;;;6.40;4.30;;;;;;;15.98;78.61;100626.54;106210;1274;24225;-80
2022/08/30 05:11:21;;;;;;;9.60;5.10;;;;;;;16.02;78.60;100628.56;106358;1271;25351;-80
2022/08/30 05:13:49;;;;;;;7.70;4.80;;;;;;;16.04;78.55;100630.27;106395;1274;22651;-81
2022/08/30 05:16:19;;;;;;;7.30;4.60;;;;;;;16.04;78.44;100628.14;106447;1277;22688;-86
2022/08/30 05:18:48;;;;;;;8.00;4.80;;;;;;;16.09;78.33;100626.41;106130;1278;23019;-78
2022/08/30 05:21:21;;;;;;;6.50;4.30;;;;;;;16.10;78.32;100625.15;106325;1278;24316;-83
2022/08/30 05:23:49;;;;;;;5.70;4.70;;;;;;;16.15;78.19;100628.02;106205;1278;25248;-84
2022/08/30 05:26:23;;;;;;;5.40;4.30;;;;;;;16.11;78.23;100630.79;106171;1278;22557;-83
2022/08/30 05:28:51;;;;;;;6.60;4.20;;;;;;;16.06;78.36;100632.52;106041;1278;23960;-80
2022/08/30 05:31:22;;;;;;;5.50;4.00;;;;;;;16.03;78.37;100632.96;106098;1277;25248;-83
2022/08/30 05:33:50;;;;;;;4.10;3.70;;;;;;;15.99;78.51;100635.91;106024;1279;25232;-77
2022/08/30 05:36:19;;;;;;;4.70;4.10;;;;;;;16.01;78.61;100638.52;106034;1277;22576;-78
2022/08/30 05:38:47;;;;;;;5.50;3.90;;;;;;;16.05;78.44;100634.16;106028;1277;22686;-80
2022/08/30 05:41:14;;;;;;;6.20;4.10;;;;;;;16.09;78.54;100637.77;106117;1271;24233;-79
2022/08/30 05:43:41;;;;;;;5.60;3.70;;;;;;;16.11;78.23;100635.41;106357;1271;22530;-81
2022/08/30 05:46:10;;;;;;;6.60;3.80;;;;;;;16.15;78.33;100634.40;106277;1271;22694;-77
2022/08/30 05:48:39;;;;;;;5.20;3.50;;;;;;;16.23;78.19;100633.67;106258;1274;22537;-82
2022/08/30 05:51:15;;;;;;;4.10;3.30;;;;;;;16.22;78.01;100632.27;106475;1272;23275;-81
2022/08/30 05:53:43;;;;;;;4.70;3.20;;;;;;;16.27;78.14;100636.95;106375;1272;23932;-81
2022/08/30 05:56:15;;;;;;;5.60;3.20;;;;;;;16.32;77.87;100629.31;106391;1271;22560;-80
2022/08/30 05:58:43;;;;;;;4.60;3.50;;;;;;;16.38;77.54;100637.67;106509;1271;24566;-81
2022/08/30 06:01:31;;;;;;;3.30;3.00;;;;;;;16.33;77.68;100636.17;106449;1271;24303;-79
2022/08/30 06:04:01;;;;;;;4.90;2.70;;;;;;;16.30;77.81;100638.06;106535;1271;24285;-80
2022/08/30 06:06:32;;;;;;;3.70;2.70;;;;;;;16.35;77.92;100639.70;106467;1269;24323;-79
2022/08/30 06:08:59;;;;;;;3.80;3.00;;;;;;;16.50;77.81;100637.52;106537;1268;25417;-80
2022/08/30 06:11:27;;;;;;;7.00;2.80;;;;;;;16.67;77.47;100638.92;106357;1271;25358;-81
2022/08/30 06:13:55;;;;;;;3.70;2.60;;;;;;;16.76;76.95;100638.67;106418;1271;25246;-80
2022/08/30 06:16:25;;;;;;;3.90;2.30;;;;;;;16.86;76.59;100636.59;106507;1271;22620;-84
2022/08/30 06:18:54;;;;;;;3.70;2.40;;;;;;;16.94;76.28;100637.58;106415;1271;24221;-81
2022/08/30 06:21:24;;;;;;;3.70;2.50;;;;;;;17.02;76.02;100639.46;106328;1271;25332;-79
2022/08/30 06:23:51;;;;;;;3.10;2.10;;;;;;;17.05;75.74;100639.36;106540;1271;24682;-79
2022/08/30 06:26:19;;;;;;;3.70;2.30;;;;;;;17.04;75.52;100646.70;107279;1271;25558;-77
2022/08/30 06:28:48;;;;;;;2.40;2.00;;;;;;;17.02;75.52;100647.48;108281;1274;22693;-81
2022/08/30 06:31:18;;;;;;;3.90;2.30;;;;;;;17.06;75.39;100648.75;107470;1276;24275;-77
2022/08/30 06:33:46;;;;;;;3.10;2.20;;;;;;;17.12;75.27;100649.85;107374;1277;25673;-76
2022/08/30 06:36:22;;;;;;;5.10;2.40;;;;;;;17.21;75.24;100652.94;107968;1274;23953;-78
2022/08/30 06:38:52;;;;;;;3.40;2.20;;;;;;;17.30;74.75;100656.20;106810;1274;25568;-77
2022/08/30 06:41:23;;;;;;;7.60;2.40;;;;;;;17.37;74.65;100659.02;106304;1274;24318;-77
2022/08/30 06:43:50;;;;;;;11.10;3.20;;;;;;;17.44;74.54;100655.02;106097;1277;22745;-80
2022/08/30 06:46:23;;;;;;;7.00;2.40;;;;;;;17.43;74.19;100657.58;105901;1271;24238;-81
2022/08/30 06:48:51;;;;;;;7.40;2.40;;;;;;;17.37;74.23;100651.88;106402;1271;22550;-79
2022/08/30 06:51:25;;;;;;;2.90;1.80;;;;;;;17.41;74.30;100657.08;106373;1271;25538;-77
2022/08/30 06:53:53;;;;;;;2.50;1.60;;;;;;;17.44;73.90;100665.88;106013;1275;25480;-80
2022/08/30 06:56:21;;;;;;;2.90;1.90;;;;;;;17.47;73.58;100665.09;106145;1274;25483;-75
2022/08/30 06:58:49;;;;;;;4.50;2.00;;;;;;;17.48;73.43;100667.38;105984;1275;25365;-78
2022/08/30 07:01:22;;;;;;;2.00;1.70;;;;;;;17.52;73.63;100663.30;106146;1274;22570;-78
2022/08/30 07:03:50;;;;;;;5.70;2.10;;;;;;;17.61;73.53;100664.62;106028;1274;23202;-80
2022/08/30 07:06:18;;;;;;;6.40;2.30;;;;;;;17.65;73.39;100670.36;106278;1274;22841;-77
2022/08/30 07:08:46;;;;;;;3.90;2.20;;;;;;;17.64;73.12;100675.39;106135;1274;25555;-79
2022/08/30 07:11:13;;;;;;;5.40;1.70;;;;;;;17.66;73.35;100679.22;106201;1271;22558;-77
2022/08/30 07:13:40;;;;;;;2.20;1.80;;;;;;;17.72;73.26;100687.61;106489;1271;22660;-76
2022/08/30 07:16:12;;;;;;;5.00;2.00;;;;;;;17.72;73.13;100687.95;106249;1272;22669;-80
2022/08/30 07:18:49;;;;;;;5.70;1.80;;;;;;;17.71;73.10;100695.27;106501;1269;22612;-74
2022/08/30 07:21:23;;;;;;;2.80;1.80;;;;;;;17.75;73.12;100692.11;106511;1268;23927;-79
2022/08/30 07:23:52;;;;;;;2.60;1.80;;;;;;;17.77;73.02;100694.16;106586;1268;23214;-80
2022/08/30 07:26:24;;;;;;;4.20;1.70;;;;;;;17.75;72.79;100695.86;106585;1271;24224;-78
2022/08/30 07:28:52;;;;;;;5.50;1.70;;;;;;;17.71;72.78;100697.42;106519;1268;22544;-80
2022/08/30 07:31:22;;;;;;;4.10;1.90;;;;;;;17.63;73.05;100699.63;106643;1268;25572;-83
2022/08/30 07:33:49;;;;;;;5.80;1.70;;;;;;;17.62;73.32;100701.98;106466;1268;24228;-78
2022/08/30 07:36:17;;;;;;;3.70;1.80;;;;;;;17.67;73.29;100697.73;106544;1268;22833;-78
2022/08/30 07:38:45;;;;;;;3.60;2.10;;;;;;;17.80;72.99;100706.89;106508;1268;22590;-78
2022/08/30 07:41:21;;;;;;;3.00;1.60;;;;;;;17.88;72.81;100702.35;106446;1268;24288;-80
2022/08/30 07:43:49;;;;;;;2.30;1.50;;;;;;;17.96;72.75;100706.54;106546;1267;22817;-78
2022/08/30 07:46:17;;;;;;;1.80;1.50;;;;;;;17.98;71.97;100700.95;106544;1268;22573;-83
2022/08/30 07:48:44;;;;;;;1.70;1.50;;;;;;;18.07;72.18;100705.80;106394;1268;24225;-79
2022/08/30 07:51:15;;;;;;;2.80;1.60;;;;;;;18.22;71.69;100709.95;106419;1268;24509;-78
2022/08/30 07:53:42;;;;;;;5.40;2.00;;;;;;;18.25;71.43;100712.50;106397;1268;22567;-80
2022/08/30 07:56:10;;;;;;;4.30;2.00;;;;;;;18.32;71.52;100713.14;106171;1268;22685;-80
2022/08/30 07:58:38;;;;;;;4.20;1.90;;;;;;;18.45;71.31;100713.36;106453;1268;22533;-78
2022/08/30 08:01:07;;;;;;;5.80;1.80;;;;;;;18.49;70.73;100717.88;106439;1268;24278;-80
2022/08/30 08:03:35;;;;;;;6.60;1.90;;;;;;;18.50;70.78;100714.61;106082;1274;24281;-80
2022/08/30 08:06:04;;;;;;;6.50;1.90;;;;;;;18.54;70.34;100712.70;106023;1274;25656;-79
2022/08/30 08:08:31;;;;;;;4.40;1.60;;;;;;;18.57;70.23;100716.86;105878;1277;25312;-78
2022/08/30 08:11:25;;;;;;;2.20;1.40;;;;;;;18.64;70.02;100714.30;105629;1280;22538;-78
2022/08/30 08:13:58;;;;;;;2.90;1.20;;;;;;;18.61;69.50;100718.33;105783;1277;25331;-80
2022/08/30 08:16:27;;;;;;;3.00;1.50;;;;;;;18.57;69.65;100720.63;105736;1278;25252;-78
2022/08/30 08:18:55;;;;;;;6.80;1.60;;;;;;;18.56;69.57;100718.33;105837;1277;25613;-79
2022/08/30 08:21:23;;;;;;;7.00;1.40;;;;;;;18.55;69.47;100722.27;105992;1275;24530;-79
2022/08/30 08:23:50;;;;;;;4.30;1.40;;;;;;;18.52;69.54;100724.16;106211;1273;25378;-79
2022/08/30 08:26:19;;;;;;;1.70;1.20;;;;;;;18.53;69.58;100724.69;106251;1268;24735;-80
2022/08/30 08:28:46;;;;;;;1.40;1.10;;;;;;;18.54;69.29;100725.54;106501;1268;22852;-80
2022/08/30 08:31:25;;;;;;;2.20;1.20;;;;;;;18.55;69.49;100727.66;106424;1268;25266;-82
2022/08/30 08:34:03;;;;;;;1.90;1.00;;;;;;;18.66;69.42;100725.45;106525;1268;22867;-81
2022/08/30 08:36:32;;;;;;;1.50;1.20;;;;;;;18.74;69.15;100730.48;106717;1271;26497;-80
2022/08/30 08:38:59;;;;;;;1.70;1.30;;;;;;;18.79;68.89;100732.09;106947;1271;25225;-78
2022/08/30 08:41:32;;;;;;;1.70;1.30;;;;;;;18.84;68.79;100731.02;107596;1268;22754;-76
2022/08/30 08:43:59;;;;;;;1.80;1.20;;;;;;;18.90;68.65;100736.34;108375;1268;24318;-78
2022/08/30 08:46:36;;;;;;;3.90;1.30;;;;;;;19.00;68.65;100736.14;107782;1268;23226;-76
2022/08/30 08:49:06;;;;;;;4.00;1.30;;;;;;;19.14;68.52;100737.05;107484;1268;22574;-76
2022/08/30 08:54:31;;;;;;;6.40;1.60;;;;;;;19.38;68.02;100739.83;107787;1268;23043;-83
2022/08/30 08:56:59;;;;;;;4.50;1.50;;;;;;;19.43;67.71;100741.41;108778;1271;22538;-78
2022/08/30 08:59:27;;;;;;;5.20;1.50;;;;;;;19.41;67.39;100738.31;107925;1268;23229;-76
2022/08/30 09:01:58;;;;;;;3.00;1.40;;;;;;;19.40;67.48;100736.36;106592;1275;25981;-78
2022/08/30 09:04:32;;;;;;;3.70;1.40;;;;;;;19.45;67.42;100741.35;106299;1274;22662;-79
2022/08/30 09:07:13;;;;;;;3.20;1.50;;;;;;;19.52;67.34;100742.69;106155;1274;22529;-76
2022/08/30 09:09:41;;;;;;;5.80;1.50;;;;;;;19.55;66.61;100743.08;106117;1274;22763;-75
2022/08/30 09:12:11;;;;;;;4.20;1.40;;;;;;;19.50;66.45;100738.48;106167;1274;24207;-78
2022/08/30 09:14:45;;;;;;;1.20;0.80;;;;;;;19.49;66.38;100742.80;105188;1274;1361273;-79
2022/08/30 09:17:15;;;;;;;1.70;1.20;;;;;;;19.49;66.44;100740.67;105989;1274;24382;-80
2022/08/30 09:19:45;;;;;;;1.30;0.90;;;;;;;19.52;66.34;100737.83;105775;1274;23013;-79
2022/08/30 09:22:20;;;;;;;3.60;1.20;;;;;;;19.54;66.26;100739.36;106063;1274;25242;-80
2022/08/30 09:24:58;;;;;;;2.70;1.30;;;;;;;19.53;66.16;100739.04;106040;1274;25230;-80
2022/08/30 09:27:29;;;;;;;4.80;1.40;;;;;;;19.51;66.18;100735.40;106103;1274;23546;-79
2022/08/30 09:29:58;;;;;;;2.10;1.10;;;;;;;19.53;66.34;100737.09;105957;1275;23376;-80
2022/08/30 09:32:29;;;;;;;2.50;1.30;;;;;;;19.54;66.08;100734.70;106088;1274;22562;-79
2022/08/30 09:34:57;;;;;;;3.60;1.40;;;;;;;19.56;66.38;100743.59;105587;1281;24238;-80
2022/08/30 09:37:37;;;;;;;2.70;1.40;;;;;;;19.64;66.33;100747.02;105517;1276;24238;-84
2022/08/30 09:40:11;;;;;;;3.40;1.10;;;;;;;19.66;65.99;100748.35;105987;1275;22566;-79
2022/08/30 09:42:38;;;;;;;3.10;1.00;;;;;;;19.67;65.87;100746.20;106173;1274;22544;-79
2022/08/30 09:45:19;;;;;;;1.70;0.70;;;;;;;19.69;65.72;100750.93;106075;1275;25315;-81
2022/08/30 09:47:46;;;;;;;3.60;1.10;;;;;;;19.75;65.51;100747.83;106196;1274;24098;-80
2022/08/30 09:50:21;;;;;;;3.50;1.10;;;;;;;19.81;65.47;100745.59;106579;1274;22473;-78
2022/08/30 09:52:49;;;;;;;3.30;1.10;;;;;;;19.79;65.36;100743.15;108247;1268;22530;-79
2022/08/30 09:55:33;;;;;;;1.70;0.90;;;;;;;19.78;65.47;100742.86;107847;1268;26505;-77
2022/08/30 09:58:15;;;;;;;1.90;0.90;;;;;;;19.81;65.35;100742.75;108361;1268;22543;-78
2022/08/30 10:01:03;;;;;;;4.30;1.60;;;;;;;19.85;65.31;100745.62;109006;1268;25315;-82
2022/08/30 10:03:39;;;;;;;1.90;1.00;;;;;;;19.83;65.29;100746.04;107175;1271;22614;-83
2022/08/30 10:06:11;;;;;;;3.80;1.00;;;;;;;19.82;65.28;100748.59;106797;1270;25412;-83
2022/08/30 10:08:48;;;;;;;1.90;1.00;;;;;;;19.80;65.38;100746.16;106556;1271;22473;-83
2022/08/30 10:11:50;;;;;;;1.00;0.90;;;;;;;19.79;65.40;100746.91;106504;1268;22613;-81
2022/08/30 10:14:41;;;;;;;0.70;0.70;;;;;;;19.73;65.31;100750.40;106329;1268;25244;-78
2022/08/30 10:17:14;;;;;;;2.00;1.00;;;;;;;19.80;65.53;100745.28;106401;1268;24277;-78
2022/08/30 10:19:52;;;;;;;1.60;0.90;;;;;;;19.90;65.33;100753.08;106066;1274;22600;-78
2022/08/30 10:22:28;;;;;;;5.20;1.20;;;;;;;19.99;64.79;100752.31;106005;1274;24247;-77
2022/08/30 10:25:43;;;;;;;1.90;1.00;;;;;;;20.03;64.37;100754.34;106037;1274;24104;-77
2022/08/30 10:28:16;;;;;;;5.10;1.20;;;;;;;20.08;64.12;100753.83;105518;1280;23935;-78
2022/08/30 10:30:55;;;;;;;3.00;0.90;;;;;;;20.11;64.05;100761.17;105855;1274;22541;-76
2022/08/30 10:33:27;;;;;;;3.20;0.80;;;;;;;20.02;63.62;100757.60;106074;1274;22547;-77
2022/08/30 10:36:02;;;;;;;4.10;1.20;;;;;;;19.86;63.82;100762.39;105988;1274;22774;-79
2022/08/30 10:38:33;;;;;;;2.00;1.00;;;;;;;19.83;64.17;100760.73;106321;1267;22688;-79
2022/08/30 10:41:42;;;;;;;4.10;0.90;;;;;;;19.76;64.18;100762.23;106388;1268;23265;-77
2022/08/30 10:44:17;;;;;;;1.90;1.20;;;;;;;19.66;64.35;100763.02;106430;1268;22538;-78
2022/08/30 10:46:50;;;;;;;6.20;1.30;;;;;;;19.65;64.60;100765.53;106243;1271;22512;-79
2022/08/30 10:49:22;;;;;;;5.70;0.90;;;;;;;19.69;64.48;100759.48;106355;1269;22568;-79
2022/08/30 10:52:08;;;;;;;4.00;1.00;;;;;;;19.68;64.19;100764.37;106271;1271;22557;-79
2022/08/30 10:54:43;;;;;;;6.20;1.30;;;;;;;19.69;64.48;100766.48;106544;1268;24308;-82
2022/08/30 10:57:10;;;;;;;4.10;0.90;;;;;;;19.71;64.39;100765.48;106472;1268;22836;-79
2022/08/30 10:59:45;;;;;;;3.20;1.30;;;;;;;19.64;63.97;100760.92;106437;1268;25905;-78
2022/08/30 11:02:31;;;;;;;5.20;1.10;;;;;;;19.57;64.36;100766.07;106495;1271;25456;-80
2022/08/30 11:05:28;;;;;;;3.30;1.00;;;;;;;19.50;64.40;100768.13;106570;1268;22612;-79
2022/08/30 11:08:21;;;;;;;4.50;1.10;;;;;;;19.39;64.57;100763.90;106554;1267;22547;-82
2022/08/30 11:11:00;;;;;;;4.30;1.10;;;;;;;19.42;64.64;100764.69;106472;1271;22534;-81
2022/08/30 11:13:30;;;;;;;7.20;1.30;;;;;;;19.42;64.63;100758.98;106327;1271;22522;-80
2022/08/30 11:16:05;;;;;;;5.50;1.30;;;;;;;19.50;64.73;100762.40;106479;1268;24205;-77
2022/08/30 11:18:43;;;;;;;4.10;1.10;;;;;;;19.60;64.84;100754.52;106742;1268;25235;-85
2022/08/30 11:21:39;;;;;;;1.80;0.80;;;;;;;19.71;64.82;100755.11;106412;1268;24049;-80
2022/08/30 11:24:13;;;;;;;1.50;0.80;;;;;;;19.77;64.52;100753.07;106499;1268;22524;-79
2022/08/30 11:26:53;;;;;;;4.00;0.80;;;;;;;19.83;64.27;100750.87;106436;1268;25354;-79
2022/08/30 11:29:26;;;;;;;2.30;0.80;;;;;;;19.90;64.25;100750.59;106506;1268;22674;-81
2022/08/30 11:31:58;;;;;;;3.10;0.60;;;;;;;19.98;63.87;100750.96;106509;1268;25350;-80
2022/08/30 11:35:11;;;;;;;1.30;0.70;;;;;;;20.02;63.54;100753.99;106511;1268;25295;-79
2022/08/30 11:37:43;;;;;;;0.50;0.50;;;;;;;20.10;63.57;100753.71;106036;1274;26465;-82